createdAt,value
2023-05-14T00:00:55.135Z,60.70
2023-05-14T00:03:21.801Z,60.70
2023-05-14T00:05:48.633Z,60.80
2023-05-14T00:08:15.277Z,60.80
2023-05-14T00:10:41.938Z,60.70
2023-05-14T00:13:08.602Z,60.80
2023-05-14T00:15:35.369Z,60.70
2023-05-14T00:18:02.060Z,60.70
2023-05-14T00:20:28.833Z,60.70
2023-05-14T00:22:55.561Z,60.80
2023-05-14T00:25:22.153Z,60.70
2023-05-14T00:27:48.823Z,60.70
2023-05-14T00:30:15.455Z,60.70
2023-05-14T00:32:42.076Z,60.60
2023-05-14T00:35:09.089Z,60.60
2023-05-14T00:37:36.312Z,60.60
2023-05-14T00:40:03.849Z,60.60
2023-05-14T00:42:30.595Z,60.60
2023-05-14T00:44:57.222Z,60.60
2023-05-14T00:47:24.040Z,60.60
2023-05-14T00:49:50.727Z,60.60
2023-05-14T00:52:18.426Z,60.60
2023-05-14T00:54:47.766Z,60.60
2023-05-14T00:57:14.400Z,60.50
2023-05-14T00:59:42.464Z,60.60
2023-05-14T01:02:09.063Z,60.60
2023-05-14T01:04:35.755Z,60.60
2023-05-14T01:07:05.453Z,60.50
2023-05-14T01:10:00.485Z,60.60
2023-05-14T01:12:29.868Z,59.90
2023-05-14T01:15:11.766Z,60.60
2023-05-14T01:17:54.492Z,60.40
2023-05-14T01:20:22.459Z,60.40
2023-05-14T01:22:49.202Z,60.30
2023-05-14T01:25:15.822Z,60.40
2023-05-14T01:27:54.261Z,60.40
2023-05-14T01:30:34.042Z,60.30
2023-05-14T01:33:03.494Z,60.40
2023-05-14T01:35:30.869Z,60.30
2023-05-14T01:38:00.610Z,60.30
2023-05-14T01:40:27.746Z,60.30
2023-05-14T01:42:55.263Z,60.40
2023-05-14T01:45:22.707Z,60.30
2023-05-14T01:47:50.027Z,60.30
2023-05-14T01:50:17.143Z,60.30
2023-05-14T01:52:43.905Z,60.30
2023-05-14T01:55:10.950Z,60.30
2023-05-14T01:57:37.552Z,60.30
2023-05-14T02:00:04.679Z,60.30
2023-05-14T02:02:33.966Z,60.40
2023-05-14T02:05:00.667Z,60.30
2023-05-14T02:07:27.266Z,60.30
2023-05-14T02:09:53.858Z,60.30
2023-05-14T02:12:21.156Z,60.30
2023-05-14T02:14:47.859Z,60.30
2023-05-14T02:17:17.503Z,60.30
2023-05-14T02:19:44.901Z,60.30
2023-05-14T02:22:11.727Z,61.00
2023-05-14T02:24:38.378Z,60.30
2023-05-14T02:27:05.377Z,60.30
2023-05-14T02:29:32.037Z,60.30
2023-05-14T02:31:59.023Z,60.30
2023-05-14T02:34:25.870Z,60.30
2023-05-14T02:36:52.476Z,60.30
2023-05-14T02:39:19.072Z,60.30
2023-05-14T02:41:45.669Z,60.30
2023-05-14T02:44:12.290Z,60.30
2023-05-14T02:46:38.981Z,60.20
2023-05-14T02:49:05.602Z,60.30
2023-05-14T02:51:32.241Z,60.30
2023-05-14T02:53:58.895Z,60.30
2023-05-14T02:56:26.363Z,60.30
2023-05-14T02:58:52.967Z,60.30
2023-05-14T03:01:20.173Z,60.20
2023-05-14T03:03:47.350Z,60.20
2023-05-14T03:06:14.475Z,60.20
2023-05-14T03:08:41.533Z,60.20
2023-05-14T03:11:08.247Z,60.30
2023-05-14T03:13:34.848Z,60.20
2023-05-14T03:16:01.460Z,60.30
2023-05-14T03:18:30.474Z,60.20
2023-05-14T03:20:57.224Z,60.20
2023-05-14T03:23:23.877Z,60.30
2023-05-14T03:25:50.964Z,60.20
2023-05-14T03:28:17.569Z,60.20
2023-05-14T03:30:44.423Z,60.20
2023-05-14T03:33:11.160Z,59.70
2023-05-14T03:35:37.783Z,60.20
2023-05-14T03:38:04.467Z,60.20
2023-05-14T03:40:31.104Z,60.10
2023-05-14T03:42:57.729Z,60.10
2023-05-14T03:45:24.335Z,60.10
2023-05-14T03:47:51.005Z,60.00
2023-05-14T03:50:17.725Z,60.10
2023-05-14T03:52:44.548Z,60.20
2023-05-14T03:55:11.322Z,60.20
2023-05-14T03:57:38.047Z,60.30
2023-05-14T04:00:05.470Z,60.20
2023-05-14T04:02:32.300Z,60.10
2023-05-14T04:04:59.050Z,60.10
2023-05-14T04:07:25.654Z,60.10
2023-05-14T04:09:52.290Z,60.20
2023-05-14T04:12:19.039Z,60.10
2023-05-14T04:14:45.629Z,60.10
2023-05-14T04:17:12.261Z,60.10
2023-05-14T04:19:39.679Z,60.20
2023-05-14T04:22:06.423Z,60.10
2023-05-14T04:24:33.099Z,60.10
2023-05-14T04:26:59.908Z,60.20
2023-05-14T04:29:26.541Z,60.00
2023-05-14T04:31:53.590Z,60.90
2023-05-14T04:34:20.250Z,60.10
2023-05-14T04:36:46.899Z,60.10
2023-05-14T04:39:13.611Z,60.10
2023-05-14T04:41:40.687Z,60.10
2023-05-14T04:44:07.526Z,60.10
2023-05-14T04:46:34.343Z,60.00
2023-05-14T04:49:01.024Z,60.10
2023-05-14T04:51:31.565Z,60.10
2023-05-14T04:53:58.354Z,60.80
2023-05-14T04:56:25.494Z,60.00
2023-05-14T04:58:52.104Z,60.10
2023-05-14T05:01:18.855Z,60.10
2023-05-14T05:03:45.585Z,60.10
2023-05-14T05:06:12.213Z,60.10
2023-05-14T05:08:38.829Z,60.00
2023-05-14T05:11:05.424Z,60.00
2023-05-14T05:13:32.211Z,60.10
2023-05-14T05:15:58.895Z,60.00
2023-05-14T05:18:25.838Z,60.00
2023-05-14T05:20:52.432Z,60.10
2023-05-14T05:23:19.016Z,60.00
2023-05-14T05:25:45.623Z,60.00
2023-05-14T05:28:12.259Z,60.00
2023-05-14T05:30:40.147Z,60.00
2023-05-14T05:33:07.028Z,60.00
2023-05-14T05:35:33.685Z,60.10
2023-05-14T05:38:01.573Z,60.00
2023-05-14T05:40:28.946Z,60.00
2023-05-14T05:42:55.744Z,60.00
2023-05-14T05:45:22.359Z,60.00
2023-05-14T05:47:49.094Z,60.00
2023-05-14T05:50:15.881Z,60.10
2023-05-14T05:52:42.746Z,60.10
2023-05-14T05:55:09.746Z,60.00
2023-05-14T05:57:36.364Z,60.10
2023-05-14T06:00:12.707Z,60.00
2023-05-14T06:02:42.844Z,60.10
2023-05-14T06:05:10.225Z,60.00
2023-05-14T06:07:37.071Z,60.70
2023-05-14T06:10:04.928Z,59.90
2023-05-14T06:12:31.646Z,60.00
2023-05-14T06:14:58.303Z,59.90
2023-05-14T06:17:25.683Z,60.00
2023-05-14T06:19:52.668Z,59.90
2023-05-14T06:22:19.492Z,59.90
2023-05-14T06:24:46.151Z,60.00
2023-05-14T06:27:12.771Z,59.90
2023-05-14T06:29:39.454Z,59.90
2023-05-14T06:32:06.571Z,59.40
2023-05-14T06:34:33.277Z,59.90
2023-05-14T06:37:02.573Z,59.90
2023-05-14T06:39:29.287Z,59.80
2023-05-14T06:41:55.912Z,59.80
2023-05-14T06:44:22.537Z,59.90
2023-05-14T06:46:49.130Z,59.90
2023-05-14T06:49:15.723Z,59.90
2023-05-14T06:51:42.509Z,59.90
2023-05-14T06:54:09.113Z,59.80
2023-05-14T06:56:35.736Z,59.80
2023-05-14T06:59:02.662Z,59.90
2023-05-14T07:01:30.319Z,59.80
2023-05-14T07:03:57.061Z,59.80
2023-05-14T07:06:23.905Z,59.70
2023-05-14T07:08:50.528Z,59.80
2023-05-14T07:11:17.177Z,59.80
2023-05-14T07:13:43.850Z,59.80
2023-05-14T07:16:10.551Z,59.80
2023-05-14T07:18:37.597Z,59.90
2023-05-14T07:21:07.069Z,59.80
2023-05-14T07:23:36.422Z,59.80
2023-05-14T07:26:03.454Z,59.80
2023-05-14T07:28:30.149Z,59.80
2023-05-14T07:30:56.827Z,59.80
2023-05-14T07:33:24.196Z,59.80
2023-05-14T07:35:51.375Z,59.80
2023-05-14T07:38:20.650Z,59.80
2023-05-14T07:40:47.293Z,59.90
2023-05-14T07:43:14.267Z,59.90
2023-05-14T07:45:41.145Z,59.80
2023-05-14T07:48:08.064Z,59.90
2023-05-14T07:50:34.855Z,60.00
2023-05-14T07:53:01.445Z,59.50
2023-05-14T07:55:28.127Z,60.00
2023-05-14T07:57:54.739Z,60.00
2023-05-14T08:00:21.602Z,60.00
2023-05-14T08:02:49.248Z,60.00
2023-05-14T08:05:16.580Z,60.10
2023-05-14T08:07:43.345Z,60.00
2023-05-14T08:10:10.530Z,60.10
2023-05-14T08:12:37.136Z,59.60
2023-05-14T08:15:04.194Z,60.10
2023-05-14T08:17:30.897Z,60.10
2023-05-14T08:19:57.584Z,60.10
2023-05-14T08:22:24.270Z,60.10
2023-05-14T08:24:50.957Z,60.10
2023-05-14T08:27:17.591Z,60.10
2023-05-14T08:29:44.207Z,60.10
2023-05-14T08:32:21.995Z,60.10
2023-05-14T08:34:50.067Z,60.20
2023-05-14T08:37:16.716Z,60.30
2023-05-14T08:39:43.625Z,60.30
2023-05-14T08:42:13.162Z,60.30
2023-05-14T08:44:42.263Z,60.30
2023-05-14T08:47:09.806Z,60.30
2023-05-14T08:49:42.594Z,60.30
2023-05-14T08:52:10.494Z,60.30
2023-05-14T08:54:37.249Z,60.40
2023-05-14T08:57:04.874Z,60.40
2023-05-14T08:59:31.745Z,60.30
2023-05-14T09:02:02.114Z,60.30
2023-05-14T09:04:29.949Z,60.50
2023-05-14T09:06:56.658Z,60.30
2023-05-14T09:09:23.633Z,60.40
2023-05-14T09:11:52.229Z,60.40
2023-05-14T09:14:19.913Z,60.60
2023-05-14T09:16:49.481Z,60.70
2023-05-14T09:19:19.034Z,60.70
2023-05-14T09:21:47.111Z,60.80
2023-05-14T09:24:20.916Z,60.90
2023-05-14T09:26:54.242Z,60.90
2023-05-14T09:29:21.085Z,60.80
2023-05-14T09:31:51.017Z,60.80
2023-05-14T09:34:25.000Z,60.90
2023-05-14T09:37:11.902Z,60.90
2023-05-14T09:39:38.989Z,60.60
2023-05-14T09:42:06.020Z,60.70
2023-05-14T09:44:32.699Z,60.70
2023-05-14T09:46:59.485Z,60.50
2023-05-14T09:49:26.181Z,60.70
2023-05-14T09:51:52.932Z,60.60
2023-05-14T09:54:19.633Z,60.60
2023-05-14T09:56:46.294Z,60.50
2023-05-14T09:59:13.087Z,60.60
2023-05-14T10:01:43.124Z,60.60
2023-05-14T10:04:10.869Z,60.50
2023-05-14T10:06:38.873Z,60.50
2023-05-14T10:09:12.295Z,60.60
2023-05-14T10:11:42.266Z,59.90
2023-05-14T10:14:18.383Z,60.60
2023-05-14T10:16:51.198Z,60.50
2023-05-14T10:19:20.751Z,60.50
2023-05-14T10:21:52.988Z,60.00
2023-05-14T10:24:19.997Z,60.50
2023-05-14T10:26:47.027Z,60.50
2023-05-14T10:29:13.773Z,60.50
2023-05-14T10:31:50.629Z,60.00
2023-05-14T10:34:46.042Z,60.60
2023-05-14T10:37:16.811Z,60.60
2023-05-14T10:39:45.813Z,60.60
2023-05-14T10:42:15.052Z,60.50
2023-05-14T10:44:58.307Z,60.60
2023-05-14T10:47:26.555Z,60.50
2023-05-14T10:49:55.731Z,60.50
2023-05-14T10:52:23.204Z,60.60
2023-05-14T10:54:55.256Z,60.50
2023-05-14T10:57:24.186Z,60.50
2023-05-14T10:59:54.707Z,60.50
2023-05-14T11:02:24.083Z,60.60
2023-05-14T11:04:53.256Z,60.60
2023-05-14T11:07:25.068Z,60.60
2023-05-14T11:09:52.512Z,60.60
2023-05-14T11:12:20.247Z,60.00
2023-05-14T11:14:47.388Z,60.60
2023-05-14T11:17:15.666Z,60.60
2023-05-14T11:19:44.655Z,60.60
2023-05-14T11:22:13.655Z,60.50
2023-05-14T11:24:40.763Z,60.60
2023-05-14T11:27:11.180Z,60.60
2023-05-14T11:29:38.442Z,60.60
2023-05-14T11:32:06.294Z,60.60
2023-05-14T11:34:34.602Z,60.60
2023-05-14T11:37:05.552Z,60.60
2023-05-14T11:39:38.532Z,60.60
2023-05-14T11:42:09.953Z,60.60
2023-05-14T11:44:36.727Z,60.60
2023-05-14T11:47:05.011Z,60.60
2023-05-14T11:49:32.290Z,60.60
2023-05-14T11:52:00.373Z,60.60
2023-05-14T11:54:30.186Z,60.60
2023-05-14T11:56:57.977Z,61.30
2023-05-14T11:59:25.574Z,60.50
2023-05-14T12:01:52.568Z,60.50
2023-05-14T12:04:25.093Z,60.50
2023-05-14T12:06:53.076Z,60.50
2023-05-14T12:09:23.150Z,60.50
2023-05-14T12:11:51.522Z,60.50
2023-05-14T12:14:23.216Z,60.60
2023-05-14T12:16:51.229Z,60.50
2023-05-14T12:19:19.582Z,60.50
2023-05-14T12:21:51.025Z,60.50
2023-05-14T12:24:19.863Z,60.50
2023-05-14T12:26:50.780Z,60.50
2023-05-14T12:29:17.424Z,60.50
2023-05-14T12:31:49.459Z,60.40
2023-05-14T12:34:16.908Z,60.50
2023-05-14T12:36:44.156Z,60.50
2023-05-14T12:39:12.113Z,60.40
2023-05-14T12:41:38.719Z,60.50
2023-05-14T12:44:05.621Z,61.20
2023-05-14T12:46:34.031Z,60.50
2023-05-14T12:49:01.025Z,60.50
2023-05-14T12:51:27.660Z,60.50
2023-05-14T12:53:54.281Z,60.50
2023-05-14T12:56:21.369Z,60.50
2023-05-14T12:58:48.126Z,60.50
2023-05-14T13:01:14.872Z,60.50
2023-05-14T13:03:41.578Z,59.90
2023-05-14T13:06:08.362Z,60.50
2023-05-14T13:08:35.307Z,60.50
2023-05-14T13:11:01.986Z,60.40
2023-05-14T13:13:28.719Z,60.50
2023-05-14T13:15:55.454Z,60.40
2023-05-14T13:18:22.071Z,60.40
2023-05-14T13:20:48.729Z,60.40
2023-05-14T13:23:15.433Z,60.40
2023-05-14T13:25:42.040Z,60.30
2023-05-14T13:28:08.988Z,60.30
2023-05-14T13:30:35.624Z,60.30
2023-05-14T13:33:02.503Z,60.30
2023-05-14T13:35:29.233Z,60.30
2023-05-14T13:37:55.869Z,60.30
2023-05-14T13:40:22.653Z,60.40
2023-05-14T13:42:49.262Z,60.30
2023-05-14T13:45:15.881Z,60.40
2023-05-14T13:47:42.618Z,60.30
2023-05-14T13:50:09.473Z,60.30
2023-05-14T13:52:36.474Z,60.20
2023-05-14T13:55:03.271Z,60.20
2023-05-14T13:57:29.882Z,60.30
2023-05-14T13:59:56.518Z,60.20
2023-05-14T14:02:23.219Z,60.20
2023-05-14T14:04:49.933Z,60.30
2023-05-14T14:07:16.601Z,60.30
2023-05-14T14:09:43.261Z,60.20
2023-05-14T14:12:10.281Z,60.30
2023-05-14T14:14:36.884Z,60.30
2023-05-14T14:17:03.538Z,60.30
2023-05-14T14:19:30.148Z,60.30
2023-05-14T14:21:56.844Z,60.30
2023-05-14T14:24:23.463Z,60.30
2023-05-14T14:26:50.050Z,60.40
2023-05-14T14:29:16.708Z,60.20
2023-05-14T14:31:43.531Z,60.20
2023-05-14T14:34:10.231Z,60.20
2023-05-14T14:36:36.862Z,60.20
2023-05-14T14:39:03.594Z,60.10
2023-05-14T14:41:30.227Z,60.20
2023-05-14T14:43:57.276Z,60.20
2023-05-14T14:46:23.929Z,60.10
2023-05-14T14:48:50.624Z,60.10
2023-05-14T14:51:17.368Z,60.10
2023-05-14T14:53:44.018Z,60.80
2023-05-14T14:56:10.722Z,60.10
2023-05-14T14:58:37.402Z,60.10
2023-05-14T15:01:04.148Z,60.00
2023-05-14T15:03:31.275Z,60.00
2023-05-14T15:05:58.205Z,60.00
2023-05-14T15:08:27.312Z,60.00
2023-05-14T15:10:55.545Z,60.00
2023-05-14T15:13:22.197Z,60.00
2023-05-14T15:15:50.937Z,60.00
2023-05-14T15:18:17.640Z,60.00
2023-05-14T15:20:44.670Z,60.00
2023-05-14T15:23:11.634Z,60.00
2023-05-14T15:25:38.383Z,60.00
2023-05-14T15:28:07.159Z,60.00
2023-05-14T15:30:34.002Z,60.00
2023-05-14T15:33:00.966Z,59.90
2023-05-14T15:35:27.610Z,60.00
2023-05-14T15:37:57.135Z,60.00
2023-05-14T15:40:26.594Z,60.00
2023-05-14T15:42:54.473Z,60.00
2023-05-14T15:45:21.229Z,60.00
2023-05-14T15:47:47.942Z,59.90
2023-05-14T15:50:14.612Z,59.90
2023-05-14T15:52:41.422Z,59.90
2023-05-14T15:55:08.588Z,59.90
2023-05-14T15:57:35.278Z,59.90
2023-05-14T16:00:05.965Z,59.90
2023-05-14T16:02:33.228Z,60.00
2023-05-14T16:05:00.053Z,59.90
2023-05-14T16:07:26.750Z,59.90
2023-05-14T16:09:53.476Z,60.00
2023-05-14T16:12:20.113Z,59.90
2023-05-14T16:14:46.780Z,59.90
2023-05-14T16:17:13.537Z,60.00
2023-05-14T16:19:40.263Z,60.00
2023-05-14T16:22:07.433Z,60.00
2023-05-14T16:24:34.090Z,60.00
2023-05-14T16:27:00.778Z,60.00
2023-05-14T16:29:27.877Z,60.00
2023-05-14T16:31:54.572Z,60.00
2023-05-14T16:34:21.278Z,60.00
2023-05-14T16:36:48.094Z,59.90
2023-05-14T16:39:14.847Z,60.00
2023-05-14T16:41:41.534Z,60.70
2023-05-14T16:44:08.161Z,60.00
2023-05-14T16:46:34.897Z,60.00
2023-05-14T16:49:02.426Z,59.90
2023-05-14T16:51:29.061Z,60.00
2023-05-14T16:53:55.834Z,59.90
2023-05-14T16:56:22.590Z,59.90
2023-05-14T16:58:49.272Z,59.90
2023-05-14T17:01:15.919Z,59.90
2023-05-14T17:03:43.372Z,59.90
2023-05-14T17:06:10.067Z,59.90
2023-05-14T17:08:36.718Z,59.80
2023-05-14T17:11:05.710Z,60.00
2023-05-14T17:13:33.061Z,59.90
2023-05-14T17:16:00.572Z,59.90
2023-05-14T17:18:27.492Z,59.90
2023-05-14T17:20:54.171Z,59.60
2023-05-14T17:23:20.887Z,59.30
2023-05-14T17:25:47.683Z,58.70
2023-05-14T17:28:14.359Z,58.70
2023-05-14T17:30:41.244Z,58.70
2023-05-14T17:33:08.005Z,58.60
2023-05-14T17:35:36.097Z,58.50
2023-05-14T17:38:03.256Z,58.70
2023-05-14T17:40:29.847Z,58.40
2023-05-14T17:42:58.070Z,58.30
2023-05-14T17:45:25.396Z,58.60
2023-05-14T17:47:52.410Z,58.50
2023-05-14T17:50:19.429Z,58.40
2023-05-14T17:52:50.006Z,58.50
2023-05-14T17:55:17.395Z,58.60
2023-05-14T17:57:44.262Z,58.40
2023-05-14T18:00:11.630Z,58.60
2023-05-14T18:02:38.722Z,58.50
2023-05-14T18:05:06.138Z,58.60
2023-05-14T18:07:32.870Z,58.30
2023-05-14T18:09:59.502Z,58.20
2023-05-14T18:12:26.683Z,58.20
2023-05-14T18:14:53.865Z,58.30
2023-05-14T18:17:20.568Z,58.40
2023-05-14T18:19:47.512Z,58.50
2023-05-14T18:22:15.338Z,58.70
2023-05-14T18:24:44.044Z,58.60
2023-05-14T18:27:10.979Z,58.60
2023-05-14T18:29:37.637Z,58.60
2023-05-14T18:32:04.653Z,58.60
2023-05-14T18:34:31.375Z,58.70
2023-05-14T18:36:58.590Z,58.70
2023-05-14T18:39:25.199Z,58.60
2023-05-14T18:41:52.079Z,59.60
2023-05-14T18:44:18.738Z,59.50
2023-05-14T18:46:45.525Z,59.40
2023-05-14T18:49:12.430Z,59.20
2023-05-14T18:51:39.043Z,59.40
2023-05-14T18:54:05.722Z,59.30
2023-05-14T18:56:32.322Z,59.40
2023-05-14T18:58:58.889Z,59.80
2023-05-14T19:01:25.775Z,59.80
2023-05-14T19:03:53.093Z,59.70
2023-05-14T19:06:20.108Z,59.50
2023-05-14T19:08:46.813Z,59.70
2023-05-14T19:11:13.473Z,59.70
2023-05-14T19:13:40.099Z,60.00
2023-05-14T19:16:06.860Z,60.00
2023-05-14T19:18:33.852Z,59.90
2023-05-14T19:21:00.564Z,59.90
2023-05-14T19:23:27.215Z,60.00
2023-05-14T19:25:54.271Z,60.00
2023-05-14T19:28:21.116Z,60.00
2023-05-14T19:30:47.916Z,60.00
2023-05-14T19:33:14.546Z,60.00
2023-05-14T19:35:41.188Z,60.10
2023-05-14T19:38:10.026Z,60.00
2023-05-14T19:40:36.879Z,60.10
2023-05-14T19:43:03.580Z,60.00
2023-05-14T19:45:30.325Z,60.10
2023-05-14T19:47:57.205Z,60.10
2023-05-14T19:50:23.813Z,60.00
2023-05-14T19:52:50.555Z,60.10
2023-05-14T19:55:17.221Z,60.00
2023-05-14T19:57:43.829Z,60.20
2023-05-14T20:00:11.388Z,60.10
2023-05-14T20:02:40.809Z,60.10
2023-05-14T20:05:11.445Z,60.00
2023-05-14T20:07:40.174Z,60.00
2023-05-14T20:10:07.705Z,60.00
2023-05-14T20:12:34.327Z,60.40
2023-05-14T20:15:01.000Z,60.00
2023-05-14T20:17:27.710Z,60.00
2023-05-14T20:19:54.305Z,60.10
2023-05-14T20:22:21.025Z,60.00
2023-05-14T20:24:47.944Z,60.10
2023-05-14T20:27:14.572Z,60.00
2023-05-14T20:29:41.162Z,60.10
2023-05-14T20:32:08.104Z,60.10
2023-05-14T20:34:34.727Z,60.00
2023-05-14T20:37:01.739Z,60.00
2023-05-14T20:39:28.381Z,60.10
2023-05-14T20:41:55.014Z,60.10
2023-05-14T20:44:21.693Z,60.00
2023-05-14T20:46:48.457Z,60.00
2023-05-14T20:49:15.288Z,60.10
2023-05-14T20:51:41.939Z,60.10
2023-05-14T20:54:08.557Z,59.60
2023-05-14T20:56:36.404Z,60.00
2023-05-14T20:59:03.057Z,60.10
2023-05-14T21:01:29.784Z,60.00
2023-05-14T21:03:56.607Z,59.60
2023-05-14T21:06:23.412Z,60.10
2023-05-14T21:08:50.029Z,60.00
2023-05-14T21:11:16.627Z,60.10
2023-05-14T21:13:44.430Z,60.10
2023-05-14T21:16:12.641Z,60.10
2023-05-14T21:18:39.474Z,60.10
2023-05-14T21:21:06.139Z,60.10
2023-05-14T21:23:32.940Z,60.10
2023-05-14T21:25:59.600Z,60.10
2023-05-14T21:28:26.218Z,60.10
2023-05-14T21:30:53.019Z,60.10
2023-05-14T21:33:19.668Z,60.10
2023-05-14T21:35:46.349Z,60.00
2023-05-14T21:38:13.008Z,60.10
2023-05-14T21:40:39.789Z,60.20
2023-05-14T21:43:06.477Z,60.10
2023-05-14T21:45:33.093Z,60.00
2023-05-14T21:47:59.822Z,60.00
2023-05-14T21:50:26.851Z,60.00
2023-05-14T21:52:53.456Z,60.10
2023-05-14T21:55:20.095Z,60.20
2023-05-14T21:57:46.791Z,60.10
2023-05-14T22:00:18.231Z,60.10
2023-05-14T22:02:47.903Z,60.10
2023-05-14T22:05:14.642Z,60.30
2023-05-14T22:07:41.315Z,60.00
2023-05-14T22:10:08.352Z,60.10
2023-05-14T22:12:34.954Z,60.00
2023-05-14T22:15:01.569Z,60.00
2023-05-14T22:17:28.589Z,60.10
2023-05-14T22:19:55.268Z,60.00
2023-05-14T22:22:21.866Z,60.00
2023-05-14T22:24:48.475Z,60.00
2023-05-14T22:27:15.137Z,60.00
2023-05-14T22:29:41.806Z,60.00
2023-05-14T22:32:10.084Z,60.10
2023-05-14T22:34:37.481Z,60.10
2023-05-14T22:37:04.738Z,60.10
2023-05-14T22:39:31.602Z,60.10
2023-05-14T22:41:58.318Z,60.80
2023-05-14T22:44:24.990Z,60.10
2023-05-14T22:46:51.867Z,60.80
2023-05-14T22:49:18.534Z,60.10
2023-05-14T22:51:45.174Z,60.10
2023-05-14T22:54:11.790Z,60.10
2023-05-14T22:56:38.477Z,60.10
2023-05-14T22:59:05.289Z,60.10
2023-05-14T23:01:32.060Z,60.10
2023-05-14T23:03:58.744Z,60.10
2023-05-14T23:06:25.554Z,60.00
2023-05-14T23:08:52.265Z,60.00
2023-05-14T23:11:19.119Z,60.00
2023-05-14T23:13:46.076Z,60.00
2023-05-14T23:16:12.794Z,60.10
2023-05-14T23:18:39.696Z,60.10
2023-05-14T23:21:06.523Z,60.10
2023-05-14T23:23:33.119Z,60.00
2023-05-14T23:25:59.829Z,60.10
2023-05-14T23:28:26.875Z,60.10
2023-05-14T23:30:53.508Z,60.00
2023-05-14T23:33:20.155Z,60.10
2023-05-14T23:35:46.891Z,60.10
2023-05-14T23:38:13.484Z,60.10
2023-05-14T23:40:40.082Z,60.10
2023-05-14T23:43:06.797Z,60.10
2023-05-14T23:45:33.724Z,60.10
2023-05-14T23:48:01.725Z,60.10
2023-05-14T23:50:28.371Z,60.10
2023-05-14T23:52:55.899Z,60.00
2023-05-14T23:55:22.811Z,60.00
2023-05-14T23:57:49.634Z,60.00
